Monday, January 23, 2017
19:03 UTC
  |  Log In   |  Register Free
Airport Search:

Cincinnati West Airport
(KI67)

Cincinnati West Airport Diagram
No Airport Diagram Available

FAA data valid effective Jan 5 2017 - Feb 2 2017 (unless otherwise noted).

 
 
 
 
 
 
 
 
 
 
 
 
 
 
Summary: Cincinnati West (I67)

Weather Summary


METAR for I67 is not available. Closest METAR is for
METAR

METAR KI67 231855Z 34007KT 10SM OVC011 08/06 A2956 RMK AO1

METAR KI67 231835Z 35012G18KT 10SM OVC011 08/06 A2955 RMK AO1

METAR KI67 231815Z 35007G15KT 10SM OVC011 09/06 A2956 RMK AO1

METAR KI67 231755Z 36009KT 5SM OVC013 09/06 A2957 RMK AO1

METAR KI67 231735Z 36008KT 10SM OVC013 09/06 A2957 RMK AO1

METAR KI67 231715Z 36009G18KT 10SM OVC013 10/06 A2956 RMK AO1

METAR KI67 231655Z 01014G18KT 10SM OVC013 09/06 A2956 RMK AO1

METAR KI67 231635Z 36012G17KT 10SM OVC011 08/06 A2956 RMK AO1

METAR KI67 231615Z 36012G17KT 10SM OVC011 08/06 A2957 RMK AO1

METAR KCVG 231852Z 35014KT 2SM R18C/5500VP6000FT -RA BR OVC008 08/08 A2953 RMK AO2 RAB04 CIG005V011 SLP997 P0000 T00830078

METAR KHAO 231853Z 33011KT 10SM OVC011 09/08 A2955 RMK AO2 SLP008 T00940078

METAR KLUK 231853Z 35012KT 7SM OVC011 09/08 A2953 RMK AO2 RAE1756 SLP000 P0000 T00940083

TAF for I67 is not available.
TAF

KCVG - TAF KCVG 231739Z 2318/2424 35011G21KT P6SM -RA OVC012

KCVG - TEMPO 2318/2322 3SM -RA OVC007

KCVG - FM232200 33010KT 5SM -RA BR OVC010

KCVG - FM240300 31008KT 5SM -DZ BR OVC009

KCVG - FM241400 30007KT P6SM OVC010

KCVG - FM241900 27006KT P6SM BKN018 =

KLUK - TAF KLUK 231739Z 2318/2418 36010G18KT P6SM VCSH OVC012

KLUK - TEMPO 2318/2322 5SM -DZ BR OVC009

KLUK - FM232200 33009KT 5SM -RA BR OVC012

KLUK - FM240300 34007KT 5SM -DZ BR OVC010

KLUK - FM241400 30007KT P6SM OVC012 =

Current weather conditions are not available for I67.

The nearest NOAA weather station is at HAO (11.6 nm NE from I67)
 Current Weather at HAO
49.0 F (9.4 C)
Overcast
Northwest winds at 12.7 mph
Pressure:
29.55 in
Humidity:
90%
Wind:
Northwest at 12.7 MPH (11 KT)
Dew Point:
46.0 F (7.8 C)
Visibility:
10.00 mi
I67 NOAA Radar
I67 Weather Radar

Runway Summary

ID Dimensions Surface Instrument Approaches
01/19 60 ft x 2803 ft Asphalt, Good Condition RNAV (GPS) RWY 19
VOR RWY 19

Communications Summary


CTAF123.00
UNICOM123.00
ATISN/A
WX AWOS-3
CINCINNATI APPROACH128.7
CINCINNATI DEPARTURE128.7
CLEARANCE DELIVERYN/A

Terminal Procedures Summary


Approaches
Special Minimums

Closest Alternate Airports with Instrument Procedures

KHAO - Butler Co Regional - 15.3 nm NE from I67

KCVG - Cincinnati/Northern Kentucky International - 15.6 nm SE from I67

KOXD - Miami University - 16.8 nm NW from I67

2OH7 - Pfeiffer Field - 17.2 nm NE from I67

67IN - Rising Sun - 19 nm SW from I67

2OI5 - University Pointe Medical Office Bldg - 19.9 nm NE from I67

2OI5 - University Pointe Medical Office Bldg - 19.9 nm NE from I67

2OI5 - University Pointe Medical Office Bldg - 19.9 nm NE from I67

2OI5 - University Pointe Medical Office Bldg - 19.9 nm NE from I67

2OI5 - University Pointe Medical Office Bldg - 19.9 nm NE from I67

Find All Airport Services Find A Hotel Find A Rental Car Find A Golf Course Find A Restaurant $100 Hamburger



FBO's on the Field
FBO Company Facility Photos Services Transportation Aviation Fuel Prices: Prices include tax
Catering Weather Repair Courtesy Rental Type 100LL JetA JetA+ MOGAS 8087
 
Cincinnati West Airport

This FBO has not yet been rated
FS:$4.49Epic
Last Updated: Jan-03
Login to update fuel prices
SS:$4.49
Contact Cincinnati West AirportMore FBO Information
 
Add another FBO Facility Photos Catering Weather Repair Courtesy Rental Type 100LL JetA JetA+ MOGAS 8087
Services Transportation Aviation Fuel Prices: Prices include tax